createdAt,value
2023-04-17T00:02:41.347Z,98.95
2023-04-17T00:05:08.945Z,98.25
2023-04-17T00:07:38.666Z,98.03
2023-04-17T00:10:09.857Z,97.76
2023-04-17T00:12:37.014Z,97.40
2023-04-17T00:15:04.477Z,97.40
2023-04-17T00:17:31.034Z,97.70
2023-04-17T00:19:57.542Z,97.65
2023-04-17T00:22:24.071Z,97.41
2023-04-17T00:24:50.580Z,97.75
2023-04-17T00:27:17.082Z,97.05
2023-04-17T00:29:43.542Z,97.25
2023-04-17T00:32:10.053Z,97.48
2023-04-17T00:34:38.036Z,97.70
2023-04-17T00:37:04.529Z,97.58
2023-04-17T00:39:31.266Z,97.65
2023-04-17T00:41:58.466Z,97.36
2023-04-17T00:44:25.008Z,97.67
2023-04-17T00:46:51.623Z,97.32
2023-04-17T00:49:18.584Z,97.28
2023-04-17T00:51:45.066Z,96.80
2023-04-17T00:54:12.388Z,97.06
2023-04-17T00:56:39.014Z,96.72
2023-04-17T00:59:08.071Z,96.61
2023-04-17T01:01:34.613Z,96.75
2023-04-17T01:04:02.058Z,96.99
2023-04-17T01:06:28.775Z,96.57
2023-04-17T01:08:55.730Z,96.92
2023-04-17T01:11:22.158Z,97.02
2023-04-17T01:13:51.837Z,96.42
2023-04-17T01:16:18.973Z,96.52
2023-04-17T01:18:48.148Z,96.05
2023-04-17T01:21:15.074Z,96.10
2023-04-17T01:23:52.802Z,95.47
2023-04-17T01:26:23.732Z,95.80
2023-04-17T01:28:51.244Z,95.65
2023-04-17T01:31:17.980Z,95.94
2023-04-17T01:33:44.553Z,96.02
2023-04-17T01:36:11.108Z,95.67
2023-04-17T01:38:37.809Z,95.69
2023-04-17T01:41:09.695Z,96.11
2023-04-17T01:43:41.781Z,96.76
2023-04-17T01:46:08.509Z,96.43
2023-04-17T01:48:35.935Z,97.24
2023-04-17T01:51:02.775Z,97.02
2023-04-17T01:53:33.574Z,96.98
2023-04-17T01:56:01.762Z,96.15
2023-04-17T01:58:28.526Z,96.43
2023-04-17T02:00:55.050Z,96.39
2023-04-17T02:03:22.883Z,95.73
2023-04-17T02:05:49.564Z,96.19
2023-04-17T02:08:16.424Z,96.33
2023-04-17T02:10:42.953Z,95.87
2023-04-17T02:13:10.094Z,95.86
2023-04-17T02:15:40.457Z,96.28
2023-04-17T02:18:07.735Z,95.75
2023-04-17T02:20:34.641Z,96.08
2023-04-17T02:23:02.040Z,96.58
2023-04-17T02:25:28.941Z,96.24
2023-04-17T02:27:56.232Z,96.52
2023-04-17T02:30:26.714Z,95.90
2023-04-17T02:32:54.224Z,96.02
2023-04-17T02:35:22.661Z,96.77
2023-04-17T02:37:49.191Z,96.88
2023-04-17T02:40:16.269Z,96.83
2023-04-17T02:42:42.780Z,97.59
2023-04-17T02:45:10.397Z,97.13
2023-04-17T02:47:37.330Z,97.05
2023-04-17T02:50:04.923Z,96.98
2023-04-17T02:52:33.749Z,97.19
2023-04-17T02:55:00.437Z,97.27
2023-04-17T02:57:27.378Z,97.55
2023-04-17T02:59:53.906Z,97.68
2023-04-17T03:02:22.090Z,97.77
2023-04-17T03:04:50.292Z,97.38
2023-04-17T03:07:18.766Z,97.58
2023-04-17T03:09:48.536Z,97.95
2023-04-17T03:12:16.544Z,97.87
2023-04-17T03:14:43.506Z,97.76
2023-04-17T03:17:11.795Z,98.04
2023-04-17T03:19:38.311Z,97.90
2023-04-17T03:22:05.116Z,97.87
2023-04-17T03:24:31.895Z,98.14
2023-04-17T03:26:59.095Z,98.30
2023-04-17T03:29:25.765Z,98.27
2023-04-17T03:31:52.458Z,98.38
2023-04-17T03:34:21.383Z,98.41
2023-04-17T03:36:48.208Z,98.65
2023-04-17T03:39:14.874Z,98.48
2023-04-17T03:41:41.465Z,98.11
2023-04-17T03:44:09.163Z,98.17
2023-04-17T03:46:36.050Z,97.97
2023-04-17T03:49:02.707Z,98.05
2023-04-17T03:51:29.221Z,98.34
2023-04-17T03:53:55.667Z,98.48
2023-04-17T03:56:22.123Z,98.57
2023-04-17T03:58:48.685Z,98.73
2023-04-17T04:01:15.683Z,98.57
2023-04-17T04:03:42.539Z,98.50
2023-04-17T04:06:09.541Z,98.81
2023-04-17T04:08:35.999Z,98.35
2023-04-17T04:11:03.212Z,98.78
2023-04-17T04:13:29.660Z,98.63
2023-04-17T04:15:56.186Z,98.41
2023-04-17T04:18:22.757Z,98.44
2023-04-17T04:20:49.226Z,98.73
2023-04-17T04:23:16.759Z,99.04
2023-04-17T04:25:43.628Z,98.74
2023-04-17T04:28:10.676Z,99.21
2023-04-17T04:30:38.792Z,98.95
2023-04-17T04:33:06.045Z,98.62
2023-04-17T04:35:32.673Z,98.72
2023-04-17T04:38:02.436Z,98.90
2023-04-17T04:40:30.724Z,98.74
2023-04-17T04:42:57.274Z,98.91
2023-04-17T04:45:23.883Z,99.43
2023-04-17T04:47:50.705Z,99.52
2023-04-17T04:50:17.683Z,99.50
2023-04-17T04:52:44.226Z,99.77
2023-04-17T04:55:10.752Z,99.52
2023-04-17T04:57:37.221Z,99.65
2023-04-17T05:00:06.474Z,99.44
2023-04-17T05:02:33.738Z,99.61
2023-04-17T05:05:00.717Z,99.53
2023-04-17T05:07:27.259Z,99.54
2023-04-17T05:09:53.740Z,99.49
2023-04-17T05:12:20.170Z,99.60
2023-04-17T05:14:47.872Z,99.78
2023-04-17T05:17:14.356Z,99.44
2023-04-17T05:19:40.813Z,99.60
2023-04-17T05:22:07.288Z,99.68
2023-04-17T05:24:33.868Z,99.80
2023-04-17T05:27:02.157Z,99.74
2023-04-17T05:29:28.750Z,100.00
2023-04-17T05:31:55.352Z,100.00
2023-04-17T05:34:21.860Z,100.00
2023-04-17T05:36:48.353Z,100.00
2023-04-17T05:39:14.911Z,100.00
2023-04-17T05:41:41.371Z,99.92
2023-04-17T05:44:08.312Z,100.00
2023-04-17T05:46:34.771Z,100.00
2023-04-17T05:49:02.640Z,100.00
2023-04-17T05:51:29.557Z,100.00
2023-04-17T05:53:56.155Z,100.00
2023-04-17T05:56:23.398Z,100.00
2023-04-17T05:58:49.903Z,99.98
2023-04-17T06:01:18.174Z,99.99
2023-04-17T06:03:44.817Z,99.50
2023-04-17T06:06:11.437Z,99.65
2023-04-17T06:08:37.904Z,100.00
2023-04-17T06:11:04.607Z,99.89
2023-04-17T06:13:31.220Z,100.00
2023-04-17T06:15:57.742Z,100.00
2023-04-17T06:18:24.327Z,99.94
2023-04-17T06:20:50.915Z,99.17
2023-04-17T06:23:17.435Z,99.25
2023-04-17T06:25:43.930Z,99.90
2023-04-17T06:28:10.516Z,99.98
2023-04-17T06:30:37.673Z,99.67
2023-04-17T06:33:04.452Z,100.00
2023-04-17T06:35:31.033Z,99.83
2023-04-17T06:37:57.520Z,99.18
2023-04-17T06:40:24.010Z,99.36
2023-04-17T06:42:50.522Z,99.39
2023-04-17T06:45:16.985Z,99.91
2023-04-17T06:47:46.490Z,99.80
2023-04-17T06:50:13.083Z,99.28
2023-04-17T06:52:39.613Z,99.23
2023-04-17T06:55:06.507Z,99.11
2023-04-17T06:57:34.104Z,99.10
2023-04-17T07:00:00.694Z,98.59
2023-04-17T07:02:27.632Z,99.02
2023-04-17T07:04:55.058Z,98.91
2023-04-17T07:07:21.796Z,98.75
2023-04-17T07:09:48.356Z,98.35
2023-04-17T07:12:15.297Z,97.82
2023-04-17T07:14:42.253Z,97.31
2023-04-17T07:17:08.830Z,98.11
2023-04-17T07:19:35.961Z,97.37
2023-04-17T07:22:02.696Z,97.20
2023-04-17T07:24:29.269Z,97.46
2023-04-17T07:26:57.047Z,96.66
2023-04-17T07:29:23.506Z,96.94
2023-04-17T07:31:49.994Z,96.37
2023-04-17T07:34:16.503Z,96.41
2023-04-17T07:36:43.157Z,96.34
2023-04-17T07:39:09.841Z,96.83
2023-04-17T07:41:36.386Z,95.83
2023-04-17T07:44:06.436Z,95.34
2023-04-17T07:46:33.065Z,95.06
2023-04-17T07:48:59.530Z,95.07
2023-04-17T07:51:26.188Z,94.93
2023-04-17T07:53:52.665Z,94.32
2023-04-17T07:56:19.172Z,93.47
2023-04-17T07:58:45.619Z,93.43
2023-04-17T08:01:12.615Z,93.46
2023-04-17T08:03:41.506Z,93.80
2023-04-17T08:06:08.393Z,94.19
2023-04-17T08:08:34.846Z,93.79
2023-04-17T08:11:01.318Z,93.45
2023-04-17T08:13:31.232Z,94.40
2023-04-17T08:15:59.505Z,93.71
2023-04-17T08:18:25.991Z,92.47
2023-04-17T08:20:52.776Z,91.97
2023-04-17T08:23:19.297Z,91.98
2023-04-17T08:25:46.132Z,91.65
2023-04-17T08:28:12.612Z,91.50
2023-04-17T08:30:39.124Z,92.46
2023-04-17T08:33:05.766Z,91.72
2023-04-17T08:35:32.425Z,91.94
2023-04-17T08:38:00.182Z,92.67
2023-04-17T08:40:26.755Z,93.22
2023-04-17T08:42:54.416Z,91.80
2023-04-17T08:45:24.258Z,92.97
2023-04-17T08:47:51.052Z,93.23
2023-04-17T08:50:20.527Z,93.49
2023-04-17T08:52:49.839Z,92.67
2023-04-17T08:55:19.338Z,90.72
2023-04-17T08:58:09.219Z,90.44
2023-04-17T09:00:44.685Z,89.08
2023-04-17T09:03:13.005Z,87.71
2023-04-17T09:05:46.013Z,87.03
2023-04-17T09:08:20.824Z,87.10
2023-04-17T09:10:55.430Z,86.65
2023-04-17T09:13:25.338Z,85.33
2023-04-17T09:16:06.767Z,85.90
2023-04-17T09:18:34.941Z,86.39
2023-04-17T09:21:02.784Z,84.98
2023-04-17T09:23:31.124Z,83.61
2023-04-17T09:26:10.863Z,83.52
2023-04-17T09:28:40.958Z,82.42
2023-04-17T09:31:26.436Z,82.05
2023-04-17T09:34:11.834Z,82.29
2023-04-17T09:36:43.105Z,82.38
2023-04-17T09:39:21.174Z,80.59
2023-04-17T09:41:47.776Z,80.51
2023-04-17T09:44:25.826Z,79.60
2023-04-17T09:46:53.721Z,79.33
2023-04-17T09:49:40.476Z,78.35
2023-04-17T09:52:07.197Z,75.05
2023-04-17T09:54:38.163Z,77.22
2023-04-17T09:57:08.835Z,76.72
2023-04-17T09:59:45.397Z,78.67
2023-04-17T10:02:17.612Z,78.15
2023-04-17T10:04:45.550Z,78.06
2023-04-17T10:07:13.648Z,78.01
2023-04-17T10:09:41.717Z,77.06
2023-04-17T10:12:15.772Z,76.30
2023-04-17T10:14:46.980Z,76.37
2023-04-17T10:17:26.551Z,75.75
2023-04-17T10:19:53.153Z,74.03
2023-04-17T10:22:19.585Z,73.93
2023-04-17T10:25:12.862Z,73.04
2023-04-17T10:27:42.220Z,71.04
2023-04-17T10:30:12.693Z,70.99
2023-04-17T10:32:41.644Z,72.13
2023-04-17T10:35:17.414Z,71.38
2023-04-17T10:37:52.770Z,73.34
2023-04-17T10:40:29.287Z,70.59
2023-04-17T10:43:11.827Z,71.00
2023-04-17T10:46:03.786Z,71.40
2023-04-17T10:48:39.229Z,71.25
2023-04-17T10:51:27.735Z,70.29
2023-04-17T10:53:54.173Z,71.85
2023-04-17T10:56:24.658Z,69.58
2023-04-17T10:59:01.365Z,71.69
2023-04-17T11:01:36.980Z,71.18
2023-04-17T11:04:07.991Z,70.79
2023-04-17T11:06:40.058Z,69.32
2023-04-17T11:09:10.998Z,67.81
2023-04-17T11:11:44.034Z,67.75
2023-04-17T11:14:19.046Z,67.15
2023-04-17T11:16:48.128Z,68.78
2023-04-17T11:19:25.716Z,66.75
2023-04-17T11:21:54.008Z,64.87
2023-04-17T11:24:28.558Z,66.25
2023-04-17T11:26:56.594Z,66.40
2023-04-17T11:29:24.198Z,66.60
2023-04-17T11:31:52.654Z,65.10
2023-04-17T11:34:20.461Z,67.75
2023-04-17T11:36:50.606Z,67.25
2023-04-17T11:39:18.216Z,64.75
2023-04-17T11:41:45.443Z,66.10
2023-04-17T11:44:17.348Z,64.77
2023-04-17T11:46:52.627Z,65.22
2023-04-17T11:49:30.123Z,63.44
2023-04-17T11:51:59.948Z,65.84
2023-04-17T11:54:27.866Z,66.72
2023-04-17T11:57:06.161Z,65.91
2023-04-17T11:59:34.339Z,64.10
2023-04-17T12:02:01.994Z,61.78
2023-04-17T12:04:30.215Z,62.33
2023-04-17T12:06:58.560Z,63.39
2023-04-17T12:09:31.192Z,64.56
2023-04-17T12:11:58.702Z,61.46
2023-04-17T12:14:26.426Z,61.36
2023-04-17T12:16:53.077Z,59.35
2023-04-17T12:19:19.927Z,56.56
2023-04-17T12:21:49.744Z,54.46
2023-04-17T12:24:19.141Z,54.55
2023-04-17T12:26:50.422Z,57.19
2023-04-17T12:29:17.805Z,57.03
2023-04-17T12:31:45.088Z,53.95
2023-04-17T12:34:11.979Z,54.09
2023-04-17T12:36:38.738Z,50.18
2023-04-17T12:39:05.279Z,50.66
2023-04-17T12:41:31.963Z,51.06
2023-04-17T12:44:01.812Z,52.12
2023-04-17T12:46:28.503Z,50.23
2023-04-17T12:48:58.562Z,46.75
2023-04-17T12:51:28.127Z,48.58
2023-04-17T12:53:58.141Z,50.68
2023-04-17T12:56:24.766Z,49.57
2023-04-17T12:58:51.377Z,48.85
2023-04-17T13:01:17.857Z,47.97
2023-04-17T13:03:44.456Z,49.36
2023-04-17T13:06:11.306Z,49.50
2023-04-17T13:08:37.871Z,45.40
2023-04-17T13:11:04.682Z,45.45
2023-04-17T13:13:31.218Z,45.50
2023-04-17T13:15:58.496Z,49.45
2023-04-17T13:18:25.055Z,50.00
2023-04-17T13:20:51.623Z,48.71
2023-04-17T13:23:18.068Z,50.55
2023-04-17T13:25:44.691Z,48.96
2023-04-17T13:28:11.216Z,45.84
2023-04-17T13:30:37.879Z,48.46
2023-04-17T13:33:04.576Z,47.98
2023-04-17T13:35:31.211Z,46.74
2023-04-17T13:38:00.912Z,46.49
2023-04-17T13:40:27.997Z,44.05
2023-04-17T13:42:54.675Z,45.07
2023-04-17T13:45:21.365Z,46.27
2023-04-17T13:47:47.897Z,43.81
2023-04-17T13:50:14.490Z,43.19
2023-04-17T13:52:40.925Z,43.85
2023-04-17T13:55:11.835Z,41.30
2023-04-17T13:57:38.511Z,42.97
2023-04-17T14:00:06.336Z,44.04
2023-04-17T14:02:33.135Z,42.41
2023-04-17T14:04:59.974Z,44.43
2023-04-17T14:07:27.486Z,44.04
2023-04-17T14:09:54.032Z,45.37
2023-04-17T14:12:21.763Z,44.28
2023-04-17T14:14:48.408Z,43.31
2023-04-17T14:17:15.110Z,44.33
2023-04-17T14:19:41.638Z,43.11
2023-04-17T14:22:08.160Z,42.09
2023-04-17T14:24:34.659Z,41.85
2023-04-17T14:27:01.777Z,43.05
2023-04-17T14:29:28.480Z,44.22
2023-04-17T14:31:55.296Z,45.26
2023-04-17T14:34:21.849Z,43.04
2023-04-17T14:36:48.799Z,42.90
2023-04-17T14:39:15.577Z,41.01
2023-04-17T14:41:42.244Z,42.75
2023-04-17T14:44:08.915Z,43.19
2023-04-17T14:46:35.758Z,41.64
2023-04-17T14:49:02.712Z,42.44
2023-04-17T14:51:30.682Z,40.28
2023-04-17T14:53:57.555Z,43.63
2023-04-17T14:56:24.238Z,41.67
2023-04-17T14:58:50.897Z,43.19
2023-04-17T15:01:17.447Z,43.58
2023-04-17T15:03:46.768Z,45.21
2023-04-17T15:06:15.472Z,43.18
2023-04-17T15:08:42.113Z,41.82
2023-04-17T15:11:08.880Z,42.41
2023-04-17T15:13:35.966Z,44.62
2023-04-17T15:16:02.713Z,44.18
2023-04-17T15:18:29.291Z,45.76
2023-04-17T15:20:56.152Z,44.46
2023-04-17T15:23:22.970Z,45.92
2023-04-17T15:25:49.527Z,48.04
2023-04-17T15:28:16.072Z,50.04
2023-04-17T15:30:42.715Z,50.40
2023-04-17T15:33:10.408Z,50.41
2023-04-17T15:35:37.342Z,50.81
2023-04-17T15:38:04.252Z,52.02
2023-04-17T15:40:31.001Z,50.05
2023-04-17T15:42:57.538Z,51.45
2023-04-17T15:45:24.736Z,51.42
2023-04-17T15:47:51.379Z,53.47
2023-04-17T15:50:19.116Z,51.05
2023-04-17T15:52:45.710Z,52.17
2023-04-17T15:55:12.244Z,48.53
2023-04-17T15:57:41.046Z,50.05
2023-04-17T16:00:09.550Z,50.10
2023-04-17T16:02:36.175Z,48.40
2023-04-17T16:05:03.650Z,50.29
2023-04-17T16:07:30.302Z,46.90
2023-04-17T16:09:56.835Z,46.30
2023-04-17T16:12:23.404Z,46.56
2023-04-17T16:14:49.875Z,46.89
2023-04-17T16:17:16.435Z,46.69
2023-04-17T16:19:43.008Z,47.79
2023-04-17T16:22:09.562Z,47.48
2023-04-17T16:24:36.078Z,49.11
2023-04-17T16:27:02.952Z,47.23
2023-04-17T16:29:29.658Z,48.30
2023-04-17T16:31:56.792Z,48.75
2023-04-17T16:34:23.383Z,51.73
2023-04-17T16:36:49.974Z,49.00
2023-04-17T16:39:16.492Z,48.68
2023-04-17T16:41:43.469Z,47.44
2023-04-17T16:44:10.004Z,46.99
2023-04-17T16:46:52.198Z,48.13
2023-04-17T16:49:23.068Z,48.25
2023-04-17T16:51:49.616Z,48.28
2023-04-17T16:54:16.185Z,48.13
2023-04-17T16:56:43.057Z,48.43
2023-04-17T16:59:09.537Z,48.35
2023-04-17T17:01:36.034Z,48.92
2023-04-17T17:04:02.672Z,49.81
2023-04-17T17:06:29.691Z,48.73
2023-04-17T17:08:56.331Z,50.25
2023-04-17T17:11:23.397Z,50.62
2023-04-17T17:13:50.700Z,50.93
2023-04-17T17:16:18.888Z,52.61
2023-04-17T17:18:45.910Z,54.56
2023-04-17T17:21:13.190Z,55.55
2023-04-17T17:23:40.123Z,56.88
2023-04-17T17:26:07.055Z,57.80
2023-04-17T17:28:35.199Z,58.06
2023-04-17T17:31:03.827Z,58.40
2023-04-17T17:33:32.228Z,58.44
2023-04-17T17:35:59.247Z,58.01
2023-04-17T17:38:28.626Z,57.17
2023-04-17T17:40:58.199Z,54.70
2023-04-17T17:43:24.694Z,53.98
2023-04-17T17:45:51.297Z,55.57
2023-04-17T17:48:20.159Z,58.66
2023-04-17T17:50:46.652Z,59.14
2023-04-17T17:53:13.232Z,60.62
2023-04-17T17:55:39.948Z,62.20
2023-04-17T17:58:08.153Z,62.85
2023-04-17T18:00:35.192Z,62.48
2023-04-17T18:03:02.015Z,61.77
2023-04-17T18:05:28.784Z,62.19
2023-04-17T18:07:55.480Z,62.23
2023-04-17T18:10:21.926Z,62.60
2023-04-17T18:12:49.199Z,62.98
2023-04-17T18:15:15.744Z,63.73
2023-04-17T18:17:42.780Z,64.83
2023-04-17T18:20:09.729Z,64.64
2023-04-17T18:22:37.957Z,64.82
2023-04-17T18:25:06.143Z,65.24
2023-04-17T18:27:32.793Z,65.18
2023-04-17T18:29:59.294Z,64.44
2023-04-17T18:32:25.899Z,64.60
2023-04-17T18:34:52.380Z,65.52
2023-04-17T18:37:18.917Z,65.71
2023-04-17T18:39:45.427Z,65.50
2023-04-17T18:42:11.963Z,65.29
2023-04-17T18:44:38.514Z,65.54
2023-04-17T18:47:05.273Z,65.52
2023-04-17T18:49:31.806Z,65.65
2023-04-17T18:51:58.406Z,65.67
2023-04-17T18:54:25.014Z,66.59
2023-04-17T18:56:51.463Z,66.87
2023-04-17T18:59:20.144Z,66.73
2023-04-17T19:01:47.318Z,67.39
2023-04-17T19:04:14.388Z,67.46
2023-04-17T19:06:41.112Z,67.46
2023-04-17T19:09:08.040Z,67.50
2023-04-17T19:11:34.526Z,67.90
2023-04-17T19:14:01.057Z,68.24
2023-04-17T19:16:27.607Z,68.23
2023-04-17T19:18:54.155Z,68.95
2023-04-17T19:21:20.582Z,68.76
2023-04-17T19:23:47.469Z,69.24
2023-04-17T19:26:15.785Z,69.06
2023-04-17T19:28:42.289Z,69.64
2023-04-17T19:31:08.995Z,69.98
2023-04-17T19:33:35.620Z,69.91
2023-04-17T19:36:03.206Z,70.57
2023-04-17T19:38:31.232Z,70.50
2023-04-17T19:41:14.744Z,70.76
2023-04-17T19:43:42.530Z,71.05
2023-04-17T19:46:09.329Z,71.48
2023-04-17T19:48:36.619Z,72.29
2023-04-17T19:51:05.643Z,72.97
2023-04-17T19:53:34.606Z,72.96
2023-04-17T19:56:01.679Z,73.47
2023-04-17T19:58:29.317Z,73.07
2023-04-17T20:00:56.002Z,73.08
2023-04-17T20:03:22.758Z,73.59
2023-04-17T20:05:49.884Z,73.70
2023-04-17T20:08:16.464Z,73.96
2023-04-17T20:10:43.009Z,74.02
2023-04-17T20:13:12.687Z,73.76
2023-04-17T20:15:40.228Z,73.69
2023-04-17T20:18:08.839Z,73.10
2023-04-17T20:20:36.860Z,72.24
2023-04-17T20:23:03.636Z,72.64
2023-04-17T20:25:30.367Z,71.60
2023-04-17T20:27:57.302Z,71.88
2023-04-17T20:30:24.112Z,71.99
2023-04-17T20:32:51.100Z,71.35
2023-04-17T20:35:20.849Z,72.12
2023-04-17T20:37:47.512Z,72.01
2023-04-17T20:40:14.318Z,71.72
2023-04-17T20:42:42.162Z,72.16
2023-04-17T20:45:09.568Z,72.45
2023-04-17T20:47:37.471Z,72.13
2023-04-17T20:50:06.342Z,73.13
2023-04-17T20:52:33.241Z,73.68
2023-04-17T20:55:01.003Z,73.48
2023-04-17T20:57:28.527Z,72.79
2023-04-17T20:59:55.089Z,73.56
2023-04-17T21:02:21.918Z,73.98
2023-04-17T21:04:49.093Z,74.22
2023-04-17T21:07:15.847Z,74.74
2023-04-17T21:09:42.414Z,75.09
2023-04-17T21:12:09.081Z,74.75
2023-04-17T21:14:36.597Z,75.23
2023-04-17T21:17:03.104Z,75.23
2023-04-17T21:19:30.800Z,75.46
2023-04-17T21:21:58.324Z,75.00
2023-04-17T21:24:25.269Z,75.19
2023-04-17T21:26:53.263Z,75.37
2023-04-17T21:29:19.755Z,75.20
2023-04-17T21:31:46.273Z,75.36
2023-04-17T21:34:13.154Z,75.39
2023-04-17T21:36:39.819Z,75.23
2023-04-17T21:39:07.218Z,75.11
2023-04-17T21:41:33.757Z,75.70
2023-04-17T21:44:02.534Z,76.23
2023-04-17T21:46:29.335Z,75.73
2023-04-17T21:48:55.991Z,75.67
2023-04-17T21:51:23.120Z,75.84
2023-04-17T21:53:49.663Z,76.46
2023-04-17T21:56:16.155Z,76.79
2023-04-17T21:58:42.712Z,76.12
2023-04-17T22:01:09.210Z,76.51
2023-04-17T22:03:35.763Z,76.71
2023-04-17T22:06:02.279Z,76.37
2023-04-17T22:08:28.997Z,76.13
2023-04-17T22:10:55.548Z,76.88
2023-04-17T22:13:22.021Z,76.54
2023-04-17T22:15:49.072Z,77.34
2023-04-17T22:18:15.808Z,77.29
2023-04-17T22:20:42.364Z,77.14
2023-04-17T22:23:46.075Z,77.35
2023-04-17T22:26:50.082Z,77.85
2023-04-17T22:29:34.980Z,77.63
2023-04-17T22:32:39.224Z,78.06
2023-04-17T22:35:24.943Z,78.61
2023-04-17T22:37:51.681Z,78.49
2023-04-17T22:40:37.079Z,78.96
2023-04-17T22:43:50.167Z,78.76
2023-04-17T22:46:16.873Z,79.18
2023-04-17T22:48:46.193Z,78.66
2023-04-17T22:51:13.445Z,78.98
2023-04-17T22:53:39.883Z,79.42
2023-04-17T22:56:06.967Z,79.52
2023-04-17T22:58:34.103Z,79.38
2023-04-17T23:01:00.640Z,80.01
2023-04-17T23:03:27.272Z,79.69
2023-04-17T23:05:54.320Z,80.05
2023-04-17T23:08:21.327Z,80.30
2023-04-17T23:10:48.400Z,80.37
2023-04-17T23:13:14.904Z,80.78
2023-04-17T23:15:41.380Z,80.41
2023-04-17T23:18:07.916Z,80.81
2023-04-17T23:20:34.407Z,80.82
2023-04-17T23:23:00.852Z,80.71
2023-04-17T23:25:27.342Z,80.69
2023-04-17T23:27:53.756Z,80.69
2023-04-17T23:30:20.469Z,80.43
2023-04-17T23:32:47.601Z,80.60
2023-04-17T23:35:14.135Z,80.76
2023-04-17T23:37:40.602Z,80.15
2023-04-17T23:40:07.785Z,80.05
2023-04-17T23:42:34.289Z,79.85
2023-04-17T23:45:01.289Z,79.38
2023-04-17T23:47:27.796Z,79.21
2023-04-17T23:49:54.407Z,79.03
2023-04-17T23:52:20.948Z,79.05
2023-04-17T23:54:47.411Z,78.35
2023-04-17T23:57:13.852Z,77.48
2023-04-17T23:59:40.517Z,76.85
